METAR Data
IDs: Format: Raw Decoded Include TAF

Data at: 1423 UTC 10 Jul 2020

METAR for:ELLX (Luxembourg/Findel Ar, --, BX)
Text:ELLX 101350Z 27008KT 230V310 9999 FEW035 SCT042 18/12 Q1016 NOSIG
Temperature: 18.0°C ( 64°F)
Dewpoint: 12.0°C ( 54°F) [RH = 68%]
Pressure (altimeter):30.00 inches Hg (1016.0 mb)
Winds:from the W (270 degrees) at 9 MPH (8 knots; 4.1 m/s)
Visibility:6 or more sm (10+ km)
Ceiling:at least 12,000 feet AGL
Clouds: few clouds at 3500 feet AGL, scattered clouds at 4200 feet AGL

TAF for:ELLX (Luxembourg/Findel Ar, --, BX) issued at 1100 UTC 10 Jul 2020
Text:TAF ELLX 101100Z 1012/1118 27010KT 9999 BKN020
Forecast period:1200 to 1600 UTC 10 July 2020
Forecast type:FROM: standard forecast or significant change
Winds:from the W (270 degrees) at 12 MPH (10 knots; 5.1 m/s)
Visibility:6 or more sm (10+ km)
Ceiling:2000 feet AGL
Clouds: broken clouds at 2000 feet AGL
Text:PROB40
Forecast period:1200 to 1800 UTC 10 July 2020
Forecast type:TEMPORARY: The following changes expected for less than half the time period
Ceiling:at least 12,000 feet AGL
Clouds: scattered clouds at 2000 feet AGL
Weather:-SHRA (light rain showers)
Text:TEMPO 1012/1018 -SHRA SCT020TCU
Forecast period:1600 UTC 10 July 2020 to 1800 UTC 11 July 2020
Forecast type:BECOMING: Conditions expected to become as follows by 1900 UTC 10 July 2020
Winds:from the NNW (340 degrees) at 6 MPH (5 knots; 2.6 m/s)
Visibility:6 or more sm (10+ km)
Ceiling:2000 feet AGL
Clouds: broken clouds at 2000 feet AGL